BIAR

Akureyri Airport

Akureyri, Iceland
METAR BIAR 242000Z 18014KT CAVOK 03/M02 Q1011
Observed Flight Rules
Feb-24 @ 20:00 UTC (10 minutes ago) Visual Flight Rules
Wind Visibility Clouds
180° at 14 knots 10,000+ meters
  • Clear skies
Temperatures Readings
Current 3°C / 37°F
Dewpoint -2°C / 28°F
Humidity 70%
Altimeter 29.85" Hg
Pressure 1011 hPa
Elevation 27
METAR BIAR 242000Z 18014KT CAVOK 03/M02 Q1011
Observed Flight Rules
Feb-24 @ 20:00 UTC
(10 minutes ago)
VFR
Wind Visibility
180° at 14 knots 10,000+ meters
Clouds
  • Clear skies
Temperature Dewpoint
3°C / 37°F -2°C / 28°F
Humidity Altimeter Pressure
70% 29.85" Hg 1011 hPa